Paris, Kentucky
Current Conditions -  °F | °C
As of 10:35 PM on Wednesday 22 Oct 2014 (Local Time) from KIOB Reporting Station
Overcast Overcast  
Wind Chill: 48°   Ceiling: 3000
Heat Index: 48°   Visibility: 10mi
Dew Point: 43°   Wind: 0mph
Humidity: 82%   Direction: NA
Pressure: 30.27"   Gusts: NA
Location:  38.21°N, 84.25°W
Report Text: KIOB 230235Z AUTO 00000KT 10SM OVC030 09/06 A3027 RMK AO2
Loading
Personal Weather Stations






























Interactive Weather Map
Tropical Storm Tracking
New forecast layout! Learn more

10-Day Weather Forecast

Advertisements
Track Severe Weather on mobile